Aeroporto :
LOGIN :

Iscrizione | Disclaimer

   EN    FR    IT 

 










Sommario :    VFR   VFR Marginale   IFR   IFR Intensivo   IFR Molto Intensivo
Visibilità : 
Base nubi : 
>= 8 km
>= 3000ft
5 / 8 km
1000 / 3000 ft
1500m / 5 km
500 / 1000 ft
800 / 1500m
200 / 500 ft
< 800m
< 200 ft
Simboli :   Temporali  Nebbia  Neve Forte  Precipitazioni Forti  Vento > 20 kt
SIGMETs :   Varie  Temporali  Ghiacco  Turbolenza  Onda orograficha  Ceneri Vulcaniche






- Altitudine del aeroporto : 656 ft
- Codice IATA : CMN


GMMN - Casablanca Mohammed V

ULTIMO METAR :
  • 071030Z 03007KT CAVOK 22/14 Q1022 NOSIG

METARs OBSOLETI :
  • 071000Z 03009KT 360V060 CAVOK 21/14 Q1022 NOSIG
  • 070930Z 01007KT 340V050 CAVOK 21/14 Q1022 NOSIG
  • 070900Z 04006KT 010V080 CAVOK 20/15 Q1022 NOSIG
  • 070830Z 06003KT 020V100 CAVOK 18/15 Q1021 NOSIG
  • 070800Z 09004KT 050V110 CAVOK 16/15 Q1021 NOSIG

TAF TAF GMMN
Valido dal 07 a 06 ore il 08 a 12 ore UTC


070500Z 0706/0812 04006KT 9999 BKN006 BKN200
TEMPO 0706/0708 3000 BR BKN004 BKN200
FM071000 04008KT CAVOK
BECMG 0711/0714 36014KT
BECMG 0719/0722 04004KT
TEMPO 0801/0808 2000 BR BKN006



MetMap, La meteo Aeronautica in un colpo d'occhio ! - Copyright ORBIFLY Dicembre 2007 - Disclaimer

ORBIFLY MET'MAP TEAM :

Programmazione e sviluppo : Alexandra Zaïnal
Concezione : Baudouin d'Aumeries
Aiuto per la programmazione : Marc-Olivier Méhu
Supporto tecnico e logistico : Manuel Goepfert
Aiuto per la traduzione : Arnaldo La Scala

Contatto : metmap@orbifly.com




FONTI E CREDITI :

   NOAA